sensor_id;sensor_type;location;lat;lon;timestamp;pressure;altitude;pressure_sealevel;temperature;humidity
78717;BME280;68045;50.042;14.432;2024-01-15T00:00:20;96691.31;;;0.99;68.25
78717;BME280;68045;50.042;14.432;2024-01-15T00:04:41;96698.28;;;0.98;68.66
78717;BME280;68045;50.042;14.432;2024-01-15T00:08:42;96688.31;;;0.95;68.71
78717;BME280;68045;50.042;14.432;2024-01-15T00:12:43;96680.53;;;0.95;68.28
78717;BME280;68045;50.042;14.432;2024-01-15T00:16:44;96672.47;;;0.72;68.95
78717;BME280;68045;50.042;14.432;2024-01-15T00:20:45;96653.31;;;0.66;68.67
78717;BME280;68045;50.042;14.432;2024-01-15T00:24:46;96644.94;;;0.64;68.90
78717;BME280;68045;50.042;14.432;2024-01-15T00:28:47;96640.16;;;0.61;68.84
78717;BME280;68045;50.042;14.432;2024-01-15T00:32:48;96628.00;;;0.55;69.16
78717;BME280;68045;50.042;14.432;2024-01-15T00:36:49;96638.22;;;0.50;68.93
78717;BME280;68045;50.042;14.432;2024-01-15T00:40:49;96639.03;;;0.50;69.04
78717;BME280;68045;50.042;14.432;2024-01-15T00:44:50;96672.94;;;0.49;68.94
78717;BME280;68045;50.042;14.432;2024-01-15T00:48:51;96616.88;;;0.41;69.47
78717;BME280;68045;50.042;14.432;2024-01-15T00:52:52;96609.47;;;0.51;69.08
78717;BME280;68045;50.042;14.432;2024-01-15T00:56:53;96594.66;;;0.59;68.49
78717;BME280;68045;50.042;14.432;2024-01-15T01:00:55;96627.00;;;0.56;68.33
78717;BME280;68045;50.042;14.432;2024-01-15T01:04:56;96619.03;;;0.58;68.56
78717;BME280;68045;50.042;14.432;2024-01-15T01:08:57;96615.25;;;0.53;68.08
78717;BME280;68045;50.042;14.432;2024-01-15T01:12:57;96641.09;;;0.73;67.77
78717;BME280;68045;50.042;14.432;2024-01-15T01:16:58;96616.69;;;0.81;66.79
78717;BME280;68045;50.042;14.432;2024-01-15T01:20:59;96600.50;;;0.86;67.12
78717;BME280;68045;50.042;14.432;2024-01-15T01:25:00;96604.41;;;0.63;67.17
78717;BME280;68045;50.042;14.432;2024-01-15T01:29:01;96613.88;;;0.82;66.55
78717;BME280;68045;50.042;14.432;2024-01-15T01:33:01;96601.84;;;0.95;66.67
78717;BME280;68045;50.042;14.432;2024-01-15T01:37:02;96592.81;;;0.97;65.89
78717;BME280;68045;50.042;14.432;2024-01-15T01:41:03;96608.47;;;0.84;66.29
78717;BME280;68045;50.042;14.432;2024-01-15T01:45:04;96589.78;;;0.69;66.49
78717;BME280;68045;50.042;14.432;2024-01-15T01:49:07;96578.22;;;0.71;66.24
78717;BME280;68045;50.042;14.432;2024-01-15T01:53:09;96573.13;;;0.83;66.45
78717;BME280;68045;50.042;14.432;2024-01-15T01:57:11;96563.53;;;0.83;65.89
78717;BME280;68045;50.042;14.432;2024-01-15T02:01:15;96552.13;;;0.60;66.61
78717;BME280;68045;50.042;14.432;2024-01-15T02:05:18;96543.94;;;0.56;66.64
78717;BME280;68045;50.042;14.432;2024-01-15T02:09:20;96539.13;;;0.60;67.00
78717;BME280;68045;50.042;14.432;2024-01-15T02:13:21;96543.63;;;0.46;66.79
78717;BME280;68045;50.042;14.432;2024-01-15T02:17:22;96546.50;;;0.63;66.52
78717;BME280;68045;50.042;14.432;2024-01-15T02:21:23;96571.09;;;0.60;66.26
78717;BME280;68045;50.042;14.432;2024-01-15T02:25:24;96580.63;;;0.66;65.79
78717;BME280;68045;50.042;14.432;2024-01-15T02:29:25;96555.78;;;0.77;65.23
78717;BME280;68045;50.042;14.432;2024-01-15T02:33:27;96562.78;;;0.76;65.43
78717;BME280;68045;50.042;14.432;2024-01-15T02:37:28;96555.88;;;0.95;65.22
78717;BME280;68045;50.042;14.432;2024-01-15T02:41:28;96549.09;;;0.94;64.77
78717;BME280;68045;50.042;14.432;2024-01-15T02:45:30;96553.19;;;0.77;65.25
78717;BME280;68045;50.042;14.432;2024-01-15T02:49:30;96526.66;;;0.75;65.26
78717;BME280;68045;50.042;14.432;2024-01-15T02:53:33;96560.09;;;0.65;65.50
78717;BME280;68045;50.042;14.432;2024-01-15T02:57:34;96559.28;;;0.64;65.52
78717;BME280;68045;50.042;14.432;2024-01-15T03:01:36;96547.50;;;0.62;65.40
78717;BME280;68045;50.042;14.432;2024-01-15T03:05:37;96554.94;;;0.58;65.27
78717;BME280;68045;50.042;14.432;2024-01-15T03:09:38;96549.09;;;0.63;65.54
78717;BME280;68045;50.042;14.432;2024-01-15T03:13:39;96538.34;;;0.59;65.53
78717;BME280;68045;50.042;14.432;2024-01-15T03:17:41;96533.78;;;0.54;65.68
78717;BME280;68045;50.042;14.432;2024-01-15T03:21:43;96518.59;;;0.58;64.83
78717;BME280;68045;50.042;14.432;2024-01-15T03:25:44;96543.84;;;0.44;65.10
78717;BME280;68045;50.042;14.432;2024-01-15T03:29:45;96511.31;;;0.35;65.33
78717;BME280;68045;50.042;14.432;2024-01-15T03:33:46;96495.19;;;0.33;65.31
78717;BME280;68045;50.042;14.432;2024-01-15T03:37:46;96482.03;;;0.28;65.40
78717;BME280;68045;50.042;14.432;2024-01-15T03:41:47;96486.81;;;0.31;64.73
78717;BME280;68045;50.042;14.432;2024-01-15T03:45:48;96482.97;;;0.40;65.26
78717;BME280;68045;50.042;14.432;2024-01-15T03:49:49;96492.19;;;0.36;64.71
78717;BME280;68045;50.042;14.432;2024-01-15T03:53:50;96468.22;;;0.34;64.81
78717;BME280;68045;50.042;14.432;2024-01-15T03:57:51;96484.22;;;0.31;64.92
78717;BME280;68045;50.042;14.432;2024-01-15T04:01:51;96494.00;;;0.36;64.99
78717;BME280;68045;50.042;14.432;2024-01-15T04:05:52;96519.16;;;0.60;64.51
78717;BME280;68045;50.042;14.432;2024-01-15T04:09:53;96529.13;;;0.63;63.54
78717;BME280;68045;50.042;14.432;2024-01-15T04:13:54;96538.00;;;0.80;63.43
78717;BME280;68045;50.042;14.432;2024-01-15T04:17:55;96534.47;;;0.68;63.84
78717;BME280;68045;50.042;14.432;2024-01-15T04:21:56;96533.06;;;0.41;63.80
78717;BME280;68045;50.042;14.432;2024-01-15T04:25:57;96533.63;;;0.49;64.63
78717;BME280;68045;50.042;14.432;2024-01-15T04:29:58;96541.31;;;0.63;64.25
78717;BME280;68045;50.042;14.432;2024-01-15T04:33:59;96562.94;;;0.57;64.03
78717;BME280;68045;50.042;14.432;2024-01-15T04:38:00;96530.81;;;0.51;64.79
78717;BME280;68045;50.042;14.432;2024-01-15T04:42:01;96499.31;;;0.41;64.13
78717;BME280;68045;50.042;14.432;2024-01-15T04:46:02;96500.44;;;0.58;64.66
78717;BME280;68045;50.042;14.432;2024-01-15T04:50:04;96527.88;;;0.72;63.79
78717;BME280;68045;50.042;14.432;2024-01-15T04:54:05;96543.50;;;0.91;63.08
78717;BME280;68045;50.042;14.432;2024-01-15T04:58:06;96561.94;;;0.58;63.62
78717;BME280;68045;50.042;14.432;2024-01-15T05:02:07;96530.84;;;0.44;64.24
78717;BME280;68045;50.042;14.432;2024-01-15T05:06:09;96524.69;;;0.39;64.46
78717;BME280;68045;50.042;14.432;2024-01-15T05:10:10;96513.00;;;0.23;64.95
78717;BME280;68045;50.042;14.432;2024-01-15T05:14:10;96508.16;;;0.33;64.94
78717;BME280;68045;50.042;14.432;2024-01-15T05:18:11;96522.59;;;0.22;64.98
78717;BME280;68045;50.042;14.432;2024-01-15T05:22:12;96520.19;;;0.21;64.82
78717;BME280;68045;50.042;14.432;2024-01-15T05:26:13;96530.50;;;0.34;64.69
78717;BME280;68045;50.042;14.432;2024-01-15T05:30:14;96543.22;;;0.42;65.04
78717;BME280;68045;50.042;14.432;2024-01-15T05:34:15;96545.19;;;0.15;64.79
78717;BME280;68045;50.042;14.432;2024-01-15T05:38:16;96563.47;;;0.27;65.12
78717;BME280;68045;50.042;14.432;2024-01-15T05:42:18;96563.28;;;0.29;65.36
78717;BME280;68045;50.042;14.432;2024-01-15T05:46:19;96563.06;;;0.30;64.62
78717;BME280;68045;50.042;14.432;2024-01-15T05:50:19;96595.31;;;0.47;64.65
78717;BME280;68045;50.042;14.432;2024-01-15T05:54:20;96574.56;;;0.41;64.82
78717;BME280;68045;50.042;14.432;2024-01-15T05:58:21;96576.16;;;0.42;64.37
78717;BME280;68045;50.042;14.432;2024-01-15T06:02:22;96578.31;;;0.51;64.29
78717;BME280;68045;50.042;14.432;2024-01-15T06:06:23;96576.34;;;0.47;63.47
78717;BME280;68045;50.042;14.432;2024-01-15T06:10:24;96584.16;;;0.40;64.54
78717;BME280;68045;50.042;14.432;2024-01-15T06:14:25;96587.81;;;0.26;64.07
78717;BME280;68045;50.042;14.432;2024-01-15T06:18:26;96545.72;;;0.24;64.29
78717;BME280;68045;50.042;14.432;2024-01-15T06:22:27;96544.28;;;0.28;64.47
78717;BME280;68045;50.042;14.432;2024-01-15T06:26:28;96566.31;;;0.12;64.33
78717;BME280;68045;50.042;14.432;2024-01-15T06:30:30;96543.63;;;0.01;64.99
78717;BME280;68045;50.042;14.432;2024-01-15T06:34:31;96546.22;;;0.01;65.57
78717;BME280;68045;50.042;14.432;2024-01-15T06:38:32;96554.00;;;0.01;65.06
78717;BME280;68045;50.042;14.432;2024-01-15T06:42:33;96575.16;;;-0.02;65.42
78717;BME280;68045;50.042;14.432;2024-01-15T06:46:34;96559.41;;;-0.07;65.46
78717;BME280;68045;50.042;14.432;2024-01-15T06:50:35;96567.44;;;-0.22;65.54
78717;BME280;68045;50.042;14.432;2024-01-15T06:54:36;96584.59;;;-0.28;65.74
78717;BME280;68045;50.042;14.432;2024-01-15T06:58:37;96610.47;;;-0.08;65.70
78717;BME280;68045;50.042;14.432;2024-01-15T07:02:39;96596.09;;;0.03;65.57
78717;BME280;68045;50.042;14.432;2024-01-15T07:06:40;96599.91;;;0.01;65.07
78717;BME280;68045;50.042;14.432;2024-01-15T07:10:41;96604.47;;;-0.08;65.25
78717;BME280;68045;50.042;14.432;2024-01-15T07:14:41;96612.47;;;-0.16;65.29
78717;BME280;68045;50.042;14.432;2024-01-15T07:18:42;96615.28;;;-0.18;65.96
78717;BME280;68045;50.042;14.432;2024-01-15T07:22:43;96620.69;;;-0.19;66.23
78717;BME280;68045;50.042;14.432;2024-01-15T07:26:45;96622.25;;;-0.05;65.65
78717;BME280;68045;50.042;14.432;2024-01-15T07:30:45;96634.78;;;0.05;65.81
78717;BME280;68045;50.042;14.432;2024-01-15T07:34:46;96631.56;;;0.09;65.59
78717;BME280;68045;50.042;14.432;2024-01-15T07:38:47;96641.66;;;0.37;64.72
78717;BME280;68045;50.042;14.432;2024-01-15T07:42:48;96643.09;;;0.20;65.12
78717;BME280;68045;50.042;14.432;2024-01-15T07:46:49;96639.69;;;0.26;64.35
78717;BME280;68045;50.042;14.432;2024-01-15T07:50:50;96639.41;;;0.54;64.42
78717;BME280;68045;50.042;14.432;2024-01-15T07:54:50;96662.19;;;0.45;63.46
78717;BME280;68045;50.042;14.432;2024-01-15T07:58:51;96636.41;;;0.57;63.56
78717;BME280;68045;50.042;14.432;2024-01-15T08:02:52;96627.56;;;0.65;63.24
78717;BME280;68045;50.042;14.432;2024-01-15T08:06:54;96626.34;;;0.67;63.39
78717;BME280;68045;50.042;14.432;2024-01-15T08:10:55;96612.28;;;0.81;62.96
78717;BME280;68045;50.042;14.432;2024-01-15T08:14:56;96622.38;;;0.96;62.51
78717;BME280;68045;50.042;14.432;2024-01-15T08:18:57;96612.84;;;0.90;62.98
78717;BME280;68045;50.042;14.432;2024-01-15T08:22:58;96624.19;;;0.96;62.23
78717;BME280;68045;50.042;14.432;2024-01-15T08:26:59;96634.72;;;1.07;62.45
78717;BME280;68045;50.042;14.432;2024-01-15T08:31:00;96628.06;;;0.87;62.16
78717;BME280;68045;50.042;14.432;2024-01-15T08:35:02;96632.56;;;0.98;62.00
78717;BME280;68045;50.042;14.432;2024-01-15T08:39:04;96605.34;;;1.07;62.00
78717;BME280;68045;50.042;14.432;2024-01-15T08:43:05;96593.94;;;1.08;61.59
78717;BME280;68045;50.042;14.432;2024-01-15T08:47:07;96603.81;;;1.49;60.23
78717;BME280;68045;50.042;14.432;2024-01-15T08:51:08;96586.09;;;1.40;59.70
78717;BME280;68045;50.042;14.432;2024-01-15T08:55:09;96604.63;;;1.68;59.07
78717;BME280;68045;50.042;14.432;2024-01-15T08:59:10;96596.41;;;1.71;59.14
78717;BME280;68045;50.042;14.432;2024-01-15T09:03:12;96583.13;;;1.79;58.65
78717;BME280;68045;50.042;14.432;2024-01-15T09:07:13;96599.81;;;1.90;57.44
78717;BME280;68045;50.042;14.432;2024-01-15T09:11:13;96594.84;;;1.88;57.77
78717;BME280;68045;50.042;14.432;2024-01-15T09:15:15;96607.91;;;1.63;58.38
78717;BME280;68045;50.042;14.432;2024-01-15T09:19:16;96604.09;;;1.84;58.49
78717;BME280;68045;50.042;14.432;2024-01-15T09:23:17;96594.97;;;1.75;58.57
78717;BME280;68045;50.042;14.432;2024-01-15T09:27:18;96596.78;;;1.75;58.50
78717;BME280;68045;50.042;14.432;2024-01-15T09:31:18;96595.41;;;1.72;57.97
78717;BME280;68045;50.042;14.432;2024-01-15T09:35:20;96600.88;;;1.64;58.17
78717;BME280;68045;50.042;14.432;2024-01-15T09:39:21;96582.34;;;1.79;58.52
78717;BME280;68045;50.042;14.432;2024-01-15T09:43:23;96570.75;;;1.75;58.26
78717;BME280;68045;50.042;14.432;2024-01-15T09:47:25;96586.25;;;1.70;57.20
78717;BME280;68045;50.042;14.432;2024-01-15T09:51:26;96573.47;;;2.05;56.69
78717;BME280;68045;50.042;14.432;2024-01-15T09:55:28;96570.47;;;1.83;57.20
78717;BME280;68045;50.042;14.432;2024-01-15T09:59:29;96572.22;;;2.07;56.63
78717;BME280;68045;50.042;14.432;2024-01-15T10:03:32;96537.75;;;2.12;56.70
78717;BME280;68045;50.042;14.432;2024-01-15T10:07:35;96567.03;;;2.56;55.86
78717;BME280;68045;50.042;14.432;2024-01-15T10:11:37;96555.66;;;2.80;54.81
78717;BME280;68045;50.042;14.432;2024-01-15T10:15:38;96546.34;;;2.72;54.81
78717;BME280;68045;50.042;14.432;2024-01-15T10:19:38;96539.91;;;2.45;54.79
78717;BME280;68045;50.042;14.432;2024-01-15T10:23:42;96542.47;;;2.63;55.23
78717;BME280;68045;50.042;14.432;2024-01-15T10:27:43;96546.00;;;2.69;54.30
78717;BME280;68045;50.042;14.432;2024-01-15T10:31:44;96525.19;;;2.69;54.42
78717;BME280;68045;50.042;14.432;2024-01-15T10:35:45;96527.28;;;2.60;54.92
78717;BME280;68045;50.042;14.432;2024-01-15T10:39:46;96520.22;;;2.79;54.25
78717;BME280;68045;50.042;14.432;2024-01-15T10:43:47;96518.03;;;2.34;54.50
78717;BME280;68045;50.042;14.432;2024-01-15T10:47:47;96529.16;;;2.41;54.98
78717;BME280;68045;50.042;14.432;2024-01-15T10:51:49;96525.38;;;2.56;54.41
78717;BME280;68045;50.042;14.432;2024-01-15T10:55:52;96536.09;;;2.47;54.76
78717;BME280;68045;50.042;14.432;2024-01-15T10:59:53;96526.06;;;2.63;54.74
78717;BME280;68045;50.042;14.432;2024-01-15T11:03:54;96516.84;;;2.90;53.75
78717;BME280;68045;50.042;14.432;2024-01-15T11:08:01;96532.66;;;2.77;54.38
78717;BME280;68045;50.042;14.432;2024-01-15T11:12:12;96525.28;;;2.62;54.38
78717;BME280;68045;50.042;14.432;2024-01-15T11:16:14;96505.31;;;2.56;54.33
78717;BME280;68045;50.042;14.432;2024-01-15T11:20:17;96523.09;;;2.59;54.83
78717;BME280;68045;50.042;14.432;2024-01-15T11:24:42;96524.38;;;2.68;53.88
78717;BME280;68045;50.042;14.432;2024-01-15T11:28:49;96525.53;;;2.96;53.74
78717;BME280;68045;50.042;14.432;2024-01-15T11:32:49;96525.78;;;2.94;53.51
78717;BME280;68045;50.042;14.432;2024-01-15T11:40:51;96547.88;;;2.92;53.54
78717;BME280;68045;50.042;14.432;2024-01-15T11:44:53;96504.75;;;3.19;53.20
78717;BME280;68045;50.042;14.432;2024-01-15T11:49:03;96506.31;;;3.44;52.75
78717;BME280;68045;50.042;14.432;2024-01-15T11:53:13;96515.72;;;3.45;52.75
78717;BME280;68045;50.042;14.432;2024-01-15T11:57:24;96514.63;;;4.04;50.84
78717;BME280;68045;50.042;14.432;2024-01-15T12:01:26;96511.41;;;4.14;50.59
78717;BME280;68045;50.042;14.432;2024-01-15T12:05:27;96510.69;;;3.90;50.26
78717;BME280;68045;50.042;14.432;2024-01-15T12:09:28;96508.72;;;3.97;50.87
78717;BME280;68045;50.042;14.432;2024-01-15T12:13:30;96503.03;;;4.00;50.73
78717;BME280;68045;50.042;14.432;2024-01-15T12:17:30;96497.53;;;3.85;50.81
78717;BME280;68045;50.042;14.432;2024-01-15T12:21:31;96494.84;;;3.56;51.57
78717;BME280;68045;50.042;14.432;2024-01-15T12:25:33;96489.53;;;3.51;51.84
78717;BME280;68045;50.042;14.432;2024-01-15T12:29:34;96525.59;;;5.09;48.25
78717;BME280;68045;50.042;14.432;2024-01-15T12:33:35;96507.31;;;8.16;41.34
78717;BME280;68045;50.042;14.432;2024-01-15T12:37:37;96509.25;;;9.78;37.69
78717;BME280;68045;50.042;14.432;2024-01-15T12:41:38;96494.53;;;10.86;34.45
78717;BME280;68045;50.042;14.432;2024-01-15T12:45:40;96488.91;;;11.27;33.91
78717;BME280;68045;50.042;14.432;2024-01-15T12:49:41;96491.47;;;8.78;37.93
78717;BME280;68045;50.042;14.432;2024-01-15T12:53:42;96499.78;;;8.35;38.85
78717;BME280;68045;50.042;14.432;2024-01-15T12:57:43;96492.88;;;7.61;40.43
78717;BME280;68045;50.042;14.432;2024-01-15T13:01:46;96502.78;;;9.20;37.17
78717;BME280;68045;50.042;14.432;2024-01-15T13:05:47;96495.09;;;9.59;36.42
78717;BME280;68045;50.042;14.432;2024-01-15T13:09:48;96491.84;;;8.24;37.77
78717;BME280;68045;50.042;14.432;2024-01-15T13:13:52;96503.56;;;8.79;37.41
78717;BME280;68045;50.042;14.432;2024-01-15T13:17:53;96495.94;;;9.39;35.76
78717;BME280;68045;50.042;14.432;2024-01-15T13:21:54;96493.50;;;9.73;34.58
78717;BME280;68045;50.042;14.432;2024-01-15T13:25:55;96511.44;;;9.61;34.72
78717;BME280;68045;50.042;14.432;2024-01-15T13:29:56;96510.63;;;10.45;34.13
78717;BME280;68045;50.042;14.432;2024-01-15T13:33:56;96498.16;;;9.97;33.46
78717;BME280;68045;50.042;14.432;2024-01-15T13:37:58;96488.22;;;9.73;34.08
78717;BME280;68045;50.042;14.432;2024-01-15T13:41:59;96493.38;;;10.97;31.65
78717;BME280;68045;50.042;14.432;2024-01-15T13:46:00;96491.13;;;12.21;30.06
78717;BME280;68045;50.042;14.432;2024-01-15T13:50:06;96464.91;;;11.23;31.25
78717;BME280;68045;50.042;14.432;2024-01-15T13:54:07;96479.69;;;13.33;28.51
78717;BME280;68045;50.042;14.432;2024-01-15T13:58:08;96467.56;;;12.95;28.49
78717;BME280;68045;50.042;14.432;2024-01-15T14:02:09;96486.34;;;12.79;29.39
78717;BME280;68045;50.042;14.432;2024-01-15T14:06:10;96482.13;;;9.83;33.80
78717;BME280;68045;50.042;14.432;2024-01-15T14:10:11;96493.25;;;7.80;37.41
78717;BME280;68045;50.042;14.432;2024-01-15T14:14:12;96500.22;;;6.52;40.40
78717;BME280;68045;50.042;14.432;2024-01-15T14:18:13;96503.66;;;5.48;43.59
78717;BME280;68045;50.042;14.432;2024-01-15T14:22:14;96490.41;;;4.66;45.13
78717;BME280;68045;50.042;14.432;2024-01-15T14:26:15;96493.13;;;4.14;45.89
78717;BME280;68045;50.042;14.432;2024-01-15T14:30:16;96502.53;;;4.15;46.83
78717;BME280;68045;50.042;14.432;2024-01-15T14:34:17;96493.03;;;3.69;48.09
78717;BME280;68045;50.042;14.432;2024-01-15T14:38:18;96508.31;;;3.65;48.71
78717;BME280;68045;50.042;14.432;2024-01-15T14:42:19;96492.03;;;3.23;49.43
78717;BME280;68045;50.042;14.432;2024-01-15T14:46:20;96511.84;;;3.82;48.31
78717;BME280;68045;50.042;14.432;2024-01-15T14:50:21;96510.84;;;3.48;48.80
78717;BME280;68045;50.042;14.432;2024-01-15T14:54:23;96516.19;;;3.42;49.89
78717;BME280;68045;50.042;14.432;2024-01-15T14:58:25;96504.72;;;3.08;50.54
78717;BME280;68045;50.042;14.432;2024-01-15T15:02:27;96515.91;;;2.85;51.65
78717;BME280;68045;50.042;14.432;2024-01-15T15:06:29;96525.50;;;2.61;52.12
78717;BME280;68045;50.042;14.432;2024-01-15T15:10:30;96525.03;;;2.64;52.83
78717;BME280;68045;50.042;14.432;2024-01-15T15:14:32;96508.19;;;2.78;53.01
78717;BME280;68045;50.042;14.432;2024-01-15T15:18:38;96532.69;;;2.47;53.59
78717;BME280;68045;50.042;14.432;2024-01-15T15:22:38;96534.47;;;2.35;53.92
78717;BME280;68045;50.042;14.432;2024-01-15T15:26:39;96556.00;;;2.42;53.95
78717;BME280;68045;50.042;14.432;2024-01-15T15:30:40;96551.34;;;2.44;54.00
78717;BME280;68045;50.042;14.432;2024-01-15T15:34:41;96552.53;;;2.30;54.44
78717;BME280;68045;50.042;14.432;2024-01-15T15:38:42;96562.25;;;2.53;54.08
78717;BME280;68045;50.042;14.432;2024-01-15T15:42:43;96577.25;;;2.39;54.46
78717;BME280;68045;50.042;14.432;2024-01-15T15:46:44;96579.03;;;2.38;54.54
78717;BME280;68045;50.042;14.432;2024-01-15T15:50:45;96574.88;;;2.37;55.16
78717;BME280;68045;50.042;14.432;2024-01-15T15:54:46;96575.50;;;2.51;54.73
78717;BME280;68045;50.042;14.432;2024-01-15T15:58:47;96608.00;;;2.60;56.37
78717;BME280;68045;50.042;14.432;2024-01-15T16:02:48;96599.94;;;2.50;55.91
78717;BME280;68045;50.042;14.432;2024-01-15T16:06:49;96586.19;;;2.61;55.60
78717;BME280;68045;50.042;14.432;2024-01-15T16:10:51;96608.47;;;2.57;56.35
78717;BME280;68045;50.042;14.432;2024-01-15T16:14:52;96601.25;;;2.41;56.49
78717;BME280;68045;50.042;14.432;2024-01-15T16:18:52;96585.13;;;2.32;56.79
78717;BME280;68045;50.042;14.432;2024-01-15T16:22:53;96603.31;;;2.20;57.46
78717;BME280;68045;50.042;14.432;2024-01-15T16:26:54;96577.84;;;2.04;57.95
78717;BME280;68045;50.042;14.432;2024-01-15T16:30:55;96601.34;;;2.16;58.14
78717;BME280;68045;50.042;14.432;2024-01-15T16:34:57;96593.84;;;2.08;58.58
78717;BME280;68045;50.042;14.432;2024-01-15T16:38:58;96592.91;;;2.20;58.40
78717;BME280;68045;50.042;14.432;2024-01-15T16:42:59;96588.72;;;2.19;58.22
78717;BME280;68045;50.042;14.432;2024-01-15T16:47:00;96586.47;;;2.05;58.54
78717;BME280;68045;50.042;14.432;2024-01-15T16:51:01;96618.63;;;2.10;58.72
78717;BME280;68045;50.042;14.432;2024-01-15T16:55:02;96609.00;;;1.92;59.55
78717;BME280;68045;50.042;14.432;2024-01-15T16:59:03;96603.28;;;2.02;58.83
78717;BME280;68045;50.042;14.432;2024-01-15T17:03:04;96608.16;;;1.99;58.98
78717;BME280;68045;50.042;14.432;2024-01-15T17:07:05;96601.56;;;1.96;59.55
78717;BME280;68045;50.042;14.432;2024-01-15T17:11:06;96623.81;;;2.10;59.14
78717;BME280;68045;50.042;14.432;2024-01-15T17:15:08;96614.00;;;2.12;59.41
78717;BME280;68045;50.042;14.432;2024-01-15T17:19:09;96622.81;;;2.11;59.58
78717;BME280;68045;50.042;14.432;2024-01-15T17:23:12;96637.06;;;2.09;59.28
78717;BME280;68045;50.042;14.432;2024-01-15T17:27:13;96658.59;;;1.98;60.17
78717;BME280;68045;50.042;14.432;2024-01-15T17:31:14;96622.09;;;1.86;60.66
78717;BME280;68045;50.042;14.432;2024-01-15T17:35:15;96633.72;;;1.83;61.50
78717;BME280;68045;50.042;14.432;2024-01-15T17:39:16;96642.88;;;1.86;61.47
78717;BME280;68045;50.042;14.432;2024-01-15T17:43:18;96644.63;;;1.92;61.53
78717;BME280;68045;50.042;14.432;2024-01-15T17:47:20;96633.56;;;1.78;63.20
78717;BME280;68045;50.042;14.432;2024-01-15T17:51:21;96641.13;;;1.80;62.87
78717;BME280;68045;50.042;14.432;2024-01-15T17:55:22;96642.44;;;1.89;62.95
78717;BME280;68045;50.042;14.432;2024-01-15T17:59:23;96644.69;;;1.85;61.83
78717;BME280;68045;50.042;14.432;2024-01-15T18:03:24;96641.72;;;1.82;60.98
78717;BME280;68045;50.042;14.432;2024-01-15T18:07:25;96639.06;;;1.88;61.17
78717;BME280;68045;50.042;14.432;2024-01-15T18:11:27;96640.66;;;2.08;60.70
78717;BME280;68045;50.042;14.432;2024-01-15T18:15:28;96639.34;;;2.17;60.03
78717;BME280;68045;50.042;14.432;2024-01-15T18:19:29;96640.69;;;2.26;61.63
78717;BME280;68045;50.042;14.432;2024-01-15T18:23:30;96644.06;;;2.08;59.96
78717;BME280;68045;50.042;14.432;2024-01-15T18:27:31;96648.09;;;2.04;60.49
78717;BME280;68045;50.042;14.432;2024-01-15T18:31:32;96669.00;;;1.98;59.98
78717;BME280;68045;50.042;14.432;2024-01-15T18:35:33;96672.97;;;2.00;59.86
78717;BME280;68045;50.042;14.432;2024-01-15T18:39:34;96676.25;;;2.14;59.91
78717;BME280;68045;50.042;14.432;2024-01-15T18:43:35;96669.22;;;2.14;60.61
78717;BME280;68045;50.042;14.432;2024-01-15T18:47:36;96671.38;;;1.99;60.54
78717;BME280;68045;50.042;14.432;2024-01-15T18:51:38;96687.50;;;2.08;60.52
78717;BME280;68045;50.042;14.432;2024-01-15T18:55:38;96674.56;;;2.01;61.10
78717;BME280;68045;50.042;14.432;2024-01-15T18:59:42;96674.19;;;1.98;61.02
78717;BME280;68045;50.042;14.432;2024-01-15T19:03:45;96678.97;;;2.01;61.22
78717;BME280;68045;50.042;14.432;2024-01-15T19:07:46;96673.03;;;1.69;61.92
78717;BME280;68045;50.042;14.432;2024-01-15T19:11:47;96667.25;;;1.67;62.75
78717;BME280;68045;50.042;14.432;2024-01-15T19:15:48;96693.53;;;1.58;63.11
78717;BME280;68045;50.042;14.432;2024-01-15T19:19:49;96691.78;;;1.52;63.07
78717;BME280;68045;50.042;14.432;2024-01-15T19:23:51;96692.25;;;1.43;63.54
78717;BME280;68045;50.042;14.432;2024-01-15T19:27:52;96695.94;;;1.53;63.17
78717;BME280;68045;50.042;14.432;2024-01-15T19:31:53;96696.38;;;1.50;63.98
78717;BME280;68045;50.042;14.432;2024-01-15T19:35:54;96706.28;;;1.35;64.09
78717;BME280;68045;50.042;14.432;2024-01-15T19:39:55;96704.00;;;1.45;64.54
78717;BME280;68045;50.042;14.432;2024-01-15T19:43:58;96699.50;;;1.34;64.44
78717;BME280;68045;50.042;14.432;2024-01-15T19:47:59;96707.88;;;1.36;64.33
78717;BME280;68045;50.042;14.432;2024-01-15T19:52:00;96707.44;;;1.39;63.86
78717;BME280;68045;50.042;14.432;2024-01-15T19:56:01;96721.06;;;1.41;64.05
78717;BME280;68045;50.042;14.432;2024-01-15T20:00:02;96724.31;;;1.30;64.88
78717;BME280;68045;50.042;14.432;2024-01-15T20:04:06;96733.94;;;1.54;63.99
78717;BME280;68045;50.042;14.432;2024-01-15T20:08:07;96735.63;;;1.42;64.38
78717;BME280;68045;50.042;14.432;2024-01-15T20:12:08;96740.22;;;1.72;64.37
78717;BME280;68045;50.042;14.432;2024-01-15T20:16:12;96739.09;;;1.61;63.69
78717;BME280;68045;50.042;14.432;2024-01-15T20:20:13;96740.50;;;1.63;64.07
78717;BME280;68045;50.042;14.432;2024-01-15T20:24:14;96747.25;;;1.71;63.95
78717;BME280;68045;50.042;14.432;2024-01-15T20:28:14;96743.78;;;2.02;68.26
78717;BME280;68045;50.042;14.432;2024-01-15T20:32:15;96736.25;;;1.94;63.81
78717;BME280;68045;50.042;14.432;2024-01-15T20:36:18;96743.69;;;1.65;64.49
78717;BME280;68045;50.042;14.432;2024-01-15T20:40:19;96763.25;;;1.68;64.37
78717;BME280;68045;50.042;14.432;2024-01-15T20:44:20;96746.53;;;1.57;63.93
78717;BME280;68045;50.042;14.432;2024-01-15T20:48:22;96754.06;;;1.65;63.60
78717;BME280;68045;50.042;14.432;2024-01-15T20:52:28;96760.81;;;1.73;63.07
78717;BME280;68045;50.042;14.432;2024-01-15T20:56:29;96767.22;;;1.77;63.17
78717;BME280;68045;50.042;14.432;2024-01-15T21:00:30;96766.91;;;1.60;63.57
78717;BME280;68045;50.042;14.432;2024-01-15T21:04:30;96772.09;;;1.60;63.45
78717;BME280;68045;50.042;14.432;2024-01-15T21:08:31;96766.41;;;1.77;63.57
78717;BME280;68045;50.042;14.432;2024-01-15T21:12:32;96774.63;;;1.74;62.97
78717;BME280;68045;50.042;14.432;2024-01-15T21:16:33;96791.66;;;1.70;63.63
78717;BME280;68045;50.042;14.432;2024-01-15T21:20:34;96802.44;;;1.73;63.27